This is the latest recevied weather packets stored in our database for station/object DG3OBU-6. If no packets are shown the sender has not sent any weather packets the latest 1 day(s).
| Time | Temp. | Humidity | Pressure | Rain* | Wind** | Luminosity | Snow |
|---|---|---|---|---|---|---|---|
| 1778086503 | 8.89° C | 89% | 1006.6 hPa | 1.27 mm | - | - | - |
| 1778085303 | 9.44° C | 90% | 1006.6 hPa | 1.52 mm | - | - | - |
| 1778079903 | 9.44° C | 90% | 1006.5 hPa | 0 mm | - | - | - |
| 1778073603 | 9.44° C | 90% | 1006.2 hPa | 1.52 mm | - | - | - |
| 1778073303 | 9.44° C | 90% | 1006.2 hPa | 3.3 mm | - | - | - |
| 1778072703 | 9.44° C | 90% | 1006.2 hPa | 1.78 mm | - | - | - |
| 1778072103 | 9.44° C | 90% | 1006.2 hPa | 0 mm | - | - | - |
| 1778068204 | 8.89° C | 90% | 1005.8 hPa | 0 mm | - | - | - |
| 1778067303 | 8.89° C | 90% | 1005.8 hPa | 0 mm | - | - | - |
| 1778066103 | 8.89° C | 90% | 1005.7 hPa | 0 mm | - | - | - |
| 1778065803 | 8.89° C | 90% | 1005.7 hPa | 0 mm | - | - | - |
| 1778060703 | 8.33° C | 90% | 1005.4 hPa | 0 mm | - | - | - |
| 1778060403 | 8.33° C | 90% | 1005.4 hPa | 0 mm | - | - | - |
| 1778060103 | 8.33° C | 90% | 1005.4 hPa | 0 mm | - | - | - |
| 1778059803 | 8.33° C | 90% | 1005.4 hPa | 0 mm | - | - | - |
| 1778059503 | 8.33° C | 90% | 1005.4 hPa | 0 mm | - | - | - |
| 1778059203 | 7.78° C | 90% | 1005.4 hPa | 0 mm | - | - | - |
| 1778053803 | 7.78° C | 90% | 1004.8 hPa | 1.78 mm | - | - | - |
| 1778053503 | 7.78° C | 90% | 1004.8 hPa | 1.78 mm | - | - | - |
| 1778053203 | 7.78° C | 90% | 1004.8 hPa | 2.29 mm | - | - | - |
| 1778052903 | 7.22° C | 90% | 1004.9 hPa | 2.54 mm | - | - | - |
| 1778052603 | 7.78° C | 90% | 1004.9 hPa | 2.54 mm | - | - | - |
| 1778020203 | 11.11° C | 89% | 1006.5 hPa | 0 mm | - | - | - |
| 1778015103 | 11.67° C | 89% | 1007 hPa | 0 mm | - | - | - |
| 1778013303 | 11.67° C | 89% | 1007 hPa | 0 mm | - | - | - |
* Rain latest hour (hover to see other rain measurements)
** Current wind speed in m/s (hover to see current wind gust speed)